sensor_id;sensor_type;location;lat;lon;timestamp;temperature;humidity
12025;DHT22;6073;53.230;10.444;2022-09-09T00:01:46;13.80;99.90
12025;DHT22;6073;53.230;10.444;2022-09-09T00:04:27;13.80;99.90
12025;DHT22;6073;53.230;10.444;2022-09-09T00:06:59;13.80;99.90
12025;DHT22;6073;53.230;10.444;2022-09-09T00:09:29;13.80;99.90
12025;DHT22;6073;53.230;10.444;2022-09-09T00:12:00;13.80;99.90
12025;DHT22;6073;53.230;10.444;2022-09-09T00:14:37;13.80;99.90
12025;DHT22;6073;53.230;10.444;2022-09-09T00:17:14;13.80;99.90
12025;DHT22;6073;53.230;10.444;2022-09-09T00:19:50;13.80;99.90
12025;DHT22;6073;53.230;10.444;2022-09-09T00:22:19;13.80;99.90
12025;DHT22;6073;53.230;10.444;2022-09-09T00:24:48;13.80;99.90
12025;DHT22;6073;53.230;10.444;2022-09-09T00:27:31;13.80;99.90
12025;DHT22;6073;53.230;10.444;2022-09-09T00:32:41;13.80;99.90
12025;DHT22;6073;53.230;10.444;2022-09-09T00:35:21;13.70;99.90
12025;DHT22;6073;53.230;10.444;2022-09-09T00:37:50;13.70;99.90
12025;DHT22;6073;53.230;10.444;2022-09-09T00:40:33;13.70;99.90
12025;DHT22;6073;53.230;10.444;2022-09-09T00:43:20;13.60;99.90
12025;DHT22;6073;53.230;10.444;2022-09-09T00:48:40;13.60;99.90
12025;DHT22;6073;53.230;10.444;2022-09-09T00:51:15;13.50;99.90
12025;DHT22;6073;53.230;10.444;2022-09-09T00:56:19;13.50;99.90
12025;DHT22;6073;53.230;10.444;2022-09-09T00:59:08;13.50;99.90
12025;DHT22;6073;53.230;10.444;2022-09-09T01:01:37;13.50;99.90
12025;DHT22;6073;53.230;10.444;2022-09-09T01:04:09;13.50;99.90
12025;DHT22;6073;53.230;10.444;2022-09-09T01:06:41;13.40;99.90
12025;DHT22;6073;53.230;10.444;2022-09-09T01:09:13;13.40;99.90
12025;DHT22;6073;53.230;10.444;2022-09-09T01:17:20;13.30;99.90
12025;DHT22;6073;53.230;10.444;2022-09-09T01:25:23;13.20;99.90
12025;DHT22;6073;53.230;10.444;2022-09-09T01:27:55;13.20;99.90
12025;DHT22;6073;53.230;10.444;2022-09-09T01:30:22;13.20;99.90
12025;DHT22;6073;53.230;10.444;2022-09-09T01:32:55;13.20;99.90
12025;DHT22;6073;53.230;10.444;2022-09-09T01:35:48;13.20;99.90
12025;DHT22;6073;53.230;10.444;2022-09-09T01:38:16;13.20;99.90
12025;DHT22;6073;53.230;10.444;2022-09-09T01:40:43;13.10;99.90
12025;DHT22;6073;53.230;10.444;2022-09-09T01:43:09;13.10;99.90
12025;DHT22;6073;53.230;10.444;2022-09-09T01:45:35;13.10;99.90
12025;DHT22;6073;53.230;10.444;2022-09-09T01:48:01;13.10;99.90
12025;DHT22;6073;53.230;10.444;2022-09-09T01:50:28;13.10;99.90
12025;DHT22;6073;53.230;10.444;2022-09-09T01:52:58;13.10;99.90
12025;DHT22;6073;53.230;10.444;2022-09-09T01:55:32;13.10;99.90
12025;DHT22;6073;53.230;10.444;2022-09-09T02:00:29;13.00;99.90
12025;DHT22;6073;53.230;10.444;2022-09-09T02:03:26;13.00;99.90
12025;DHT22;6073;53.230;10.444;2022-09-09T02:13:35;12.90;99.90
12025;DHT22;6073;53.230;10.444;2022-09-09T02:16:08;12.90;99.90
12025;DHT22;6073;53.230;10.444;2022-09-09T02:18:41;12.80;99.90
12025;DHT22;6073;53.230;10.444;2022-09-09T02:21:10;12.80;99.90
12025;DHT22;6073;53.230;10.444;2022-09-09T02:23:38;12.80;99.90
12025;DHT22;6073;53.230;10.444;2022-09-09T02:26:06;12.80;99.90
12025;DHT22;6073;53.230;10.444;2022-09-09T02:28:34;12.80;99.90
12025;DHT22;6073;53.230;10.444;2022-09-09T02:31:01;12.80;99.90
12025;DHT22;6073;53.230;10.444;2022-09-09T02:33:30;12.80;99.90
12025;DHT22;6073;53.230;10.444;2022-09-09T02:35:59;12.80;99.90
12025;DHT22;6073;53.230;10.444;2022-09-09T02:38:30;12.70;99.90
12025;DHT22;6073;53.230;10.444;2022-09-09T02:40:58;12.70;99.90
12025;DHT22;6073;53.230;10.444;2022-09-09T02:43:24;12.70;99.90
12025;DHT22;6073;53.230;10.444;2022-09-09T02:48:51;12.70;99.90
12025;DHT22;6073;53.230;10.444;2022-09-09T02:56:52;12.60;99.90
12025;DHT22;6073;53.230;10.444;2022-09-09T02:59:20;12.70;99.90
12025;DHT22;6073;53.230;10.444;2022-09-09T03:01:46;12.70;99.90
12025;DHT22;6073;53.230;10.444;2022-09-09T03:04:12;12.70;99.90
12025;DHT22;6073;53.230;10.444;2022-09-09T03:06:38;12.70;99.90
12025;DHT22;6073;53.230;10.444;2022-09-09T03:09:03;12.70;99.90
12025;DHT22;6073;53.230;10.444;2022-09-09T03:11:29;12.70;99.90
12025;DHT22;6073;53.230;10.444;2022-09-09T03:13:55;12.70;99.90
12025;DHT22;6073;53.230;10.444;2022-09-09T03:16:22;12.80;99.90
12025;DHT22;6073;53.230;10.444;2022-09-09T03:18:48;12.80;99.90
12025;DHT22;6073;53.230;10.444;2022-09-09T03:21:13;12.80;99.90
12025;DHT22;6073;53.230;10.444;2022-09-09T03:23:39;12.80;99.90
12025;DHT22;6073;53.230;10.444;2022-09-09T03:26:05;12.80;99.90
12025;DHT22;6073;53.230;10.444;2022-09-09T03:28:31;12.80;99.90
12025;DHT22;6073;53.230;10.444;2022-09-09T03:31:00;12.80;99.90
12025;DHT22;6073;53.230;10.444;2022-09-09T03:33:26;12.80;99.90
12025;DHT22;6073;53.230;10.444;2022-09-09T03:35:53;12.70;99.90
12025;DHT22;6073;53.230;10.444;2022-09-09T03:38:18;12.80;99.90
12025;DHT22;6073;53.230;10.444;2022-09-09T03:40:54;12.80;99.90
12025;DHT22;6073;53.230;10.444;2022-09-09T03:43:21;12.70;99.90
12025;DHT22;6073;53.230;10.444;2022-09-09T03:45:46;12.60;99.90
12025;DHT22;6073;53.230;10.444;2022-09-09T03:48:13;12.60;99.90
12025;DHT22;6073;53.230;10.444;2022-09-09T03:50:39;12.50;99.90
12025;DHT22;6073;53.230;10.444;2022-09-09T03:53:09;12.50;99.90
12025;DHT22;6073;53.230;10.444;2022-09-09T03:55:35;12.50;99.90
12025;DHT22;6073;53.230;10.444;2022-09-09T03:58:03;12.40;99.90
12025;DHT22;6073;53.230;10.444;2022-09-09T04:00:29;12.40;99.90
12025;DHT22;6073;53.230;10.444;2022-09-09T04:02:55;12.40;99.90
12025;DHT22;6073;53.230;10.444;2022-09-09T04:05:26;12.40;99.90
12025;DHT22;6073;53.230;10.444;2022-09-09T04:07:51;12.40;99.90
12025;DHT22;6073;53.230;10.444;2022-09-09T04:10:17;12.40;99.90
12025;DHT22;6073;53.230;10.444;2022-09-09T04:12:45;12.40;99.90
12025;DHT22;6073;53.230;10.444;2022-09-09T04:15:11;12.40;99.90
12025;DHT22;6073;53.230;10.444;2022-09-09T04:17:36;12.40;99.90
12025;DHT22;6073;53.230;10.444;2022-09-09T04:20:02;12.40;99.90
12025;DHT22;6073;53.230;10.444;2022-09-09T04:22:34;12.40;99.90
12025;DHT22;6073;53.230;10.444;2022-09-09T04:24:59;12.50;99.90
12025;DHT22;6073;53.230;10.444;2022-09-09T04:27:25;12.50;99.90
12025;DHT22;6073;53.230;10.444;2022-09-09T04:29:50;12.60;99.90
12025;DHT22;6073;53.230;10.444;2022-09-09T04:32:16;12.70;99.90
12025;DHT22;6073;53.230;10.444;2022-09-09T04:34:44;12.70;99.90
12025;DHT22;6073;53.230;10.444;2022-09-09T04:37:10;12.70;99.90
12025;DHT22;6073;53.230;10.444;2022-09-09T04:39:38;12.80;99.90
12025;DHT22;6073;53.230;10.444;2022-09-09T04:42:07;12.80;99.90
12025;DHT22;6073;53.230;10.444;2022-09-09T04:44:32;12.80;99.90
12025;DHT22;6073;53.230;10.444;2022-09-09T04:46:58;12.90;99.90
12025;DHT22;6073;53.230;10.444;2022-09-09T04:49:23;12.90;99.90
12025;DHT22;6073;53.230;10.444;2022-09-09T04:51:52;12.90;99.90
12025;DHT22;6073;53.230;10.444;2022-09-09T04:54:18;13.00;99.90
12025;DHT22;6073;53.230;10.444;2022-09-09T04:56:44;13.00;99.90
12025;DHT22;6073;53.230;10.444;2022-09-09T04:59:12;13.00;99.90
12025;DHT22;6073;53.230;10.444;2022-09-09T05:01:41;13.00;99.90
12025;DHT22;6073;53.230;10.444;2022-09-09T05:04:06;13.00;99.90
12025;DHT22;6073;53.230;10.444;2022-09-09T05:06:32;13.10;99.90
12025;DHT22;6073;53.230;10.444;2022-09-09T05:09:00;13.10;99.90
12025;DHT22;6073;53.230;10.444;2022-09-09T05:11:31;13.10;99.90
12025;DHT22;6073;53.230;10.444;2022-09-09T05:13:57;13.10;99.90
12025;DHT22;6073;53.230;10.444;2022-09-09T05:16:23;13.10;99.90
12025;DHT22;6073;53.230;10.444;2022-09-09T05:18:49;13.10;99.90
12025;DHT22;6073;53.230;10.444;2022-09-09T05:21:17;13.10;99.90
12025;DHT22;6073;53.230;10.444;2022-09-09T05:23:46;13.00;99.90
12025;DHT22;6073;53.230;10.444;2022-09-09T05:26:14;13.00;99.90
12025;DHT22;6073;53.230;10.444;2022-09-09T05:28:46;13.10;99.90
12025;DHT22;6073;53.230;10.444;2022-09-09T05:31:13;13.10;99.90
12025;DHT22;6073;53.230;10.444;2022-09-09T05:33:41;13.20;99.90
12025;DHT22;6073;53.230;10.444;2022-09-09T05:36:13;13.20;99.90
12025;DHT22;6073;53.230;10.444;2022-09-09T05:38:43;13.20;99.90
12025;DHT22;6073;53.230;10.444;2022-09-09T05:41:10;13.30;99.90
12025;DHT22;6073;53.230;10.444;2022-09-09T05:43:41;13.30;99.90
12025;DHT22;6073;53.230;10.444;2022-09-09T05:46:17;13.40;99.90
12025;DHT22;6073;53.230;10.444;2022-09-09T05:48:47;13.50;99.90
12025;DHT22;6073;53.230;10.444;2022-09-09T05:51:15;13.60;99.90
12025;DHT22;6073;53.230;10.444;2022-09-09T05:53:41;13.60;99.90
12025;DHT22;6073;53.230;10.444;2022-09-09T05:56:12;13.70;99.90
12025;DHT22;6073;53.230;10.444;2022-09-09T05:58:42;13.70;99.90
12025;DHT22;6073;53.230;10.444;2022-09-09T06:01:26;13.70;99.90
12025;DHT22;6073;53.230;10.444;2022-09-09T06:03:52;13.70;99.90
12025;DHT22;6073;53.230;10.444;2022-09-09T06:06:24;13.70;99.90
12025;DHT22;6073;53.230;10.444;2022-09-09T06:08:52;13.70;99.90
12025;DHT22;6073;53.230;10.444;2022-09-09T06:11:24;13.70;99.90
12025;DHT22;6073;53.230;10.444;2022-09-09T06:13:50;13.70;99.90
12025;DHT22;6073;53.230;10.444;2022-09-09T06:16:21;13.70;99.90
12025;DHT22;6073;53.230;10.444;2022-09-09T06:18:49;13.70;99.90
12025;DHT22;6073;53.230;10.444;2022-09-09T06:21:20;13.80;99.90
12025;DHT22;6073;53.230;10.444;2022-09-09T06:23:46;13.80;99.90
12025;DHT22;6073;53.230;10.444;2022-09-09T06:26:18;13.80;99.90
12025;DHT22;6073;53.230;10.444;2022-09-09T06:28:46;13.90;99.90
12025;DHT22;6073;53.230;10.444;2022-09-09T06:31:16;13.90;99.90
12025;DHT22;6073;53.230;10.444;2022-09-09T06:33:49;13.90;99.90
12025;DHT22;6073;53.230;10.444;2022-09-09T06:36:27;13.90;99.90
12025;DHT22;6073;53.230;10.444;2022-09-09T06:38:53;14.00;99.90
12025;DHT22;6073;53.230;10.444;2022-09-09T06:41:23;14.00;99.90
12025;DHT22;6073;53.230;10.444;2022-09-09T06:43:49;14.00;99.90
12025;DHT22;6073;53.230;10.444;2022-09-09T06:46:17;14.10;99.90
12025;DHT22;6073;53.230;10.444;2022-09-09T06:48:44;14.10;99.90
12025;DHT22;6073;53.230;10.444;2022-09-09T06:51:20;14.10;99.90
12025;DHT22;6073;53.230;10.444;2022-09-09T06:53:49;14.20;99.90
12025;DHT22;6073;53.230;10.444;2022-09-09T06:56:19;14.40;99.90
12025;DHT22;6073;53.230;10.444;2022-09-09T06:58:47;14.70;99.90
12025;DHT22;6073;53.230;10.444;2022-09-09T07:01:36;15.20;99.90
12025;DHT22;6073;53.230;10.444;2022-09-09T07:04:02;15.80;99.90
12025;DHT22;6073;53.230;10.444;2022-09-09T07:06:31;16.00;99.90
12025;DHT22;6073;53.230;10.444;2022-09-09T07:09:10;16.00;99.90
12025;DHT22;6073;53.230;10.444;2022-09-09T07:11:41;16.30;99.90
12025;DHT22;6073;53.230;10.444;2022-09-09T07:14:08;16.30;99.90
12025;DHT22;6073;53.230;10.444;2022-09-09T07:16:34;16.30;99.90
12025;DHT22;6073;53.230;10.444;2022-09-09T07:19:03;16.50;99.90
12025;DHT22;6073;53.230;10.444;2022-09-09T07:21:33;16.50;99.90
12025;DHT22;6073;53.230;10.444;2022-09-09T07:23:59;16.60;99.90
12025;DHT22;6073;53.230;10.444;2022-09-09T07:26:29;17.10;99.90
12025;DHT22;6073;53.230;10.444;2022-09-09T07:28:55;17.80;99.90
12025;DHT22;6073;53.230;10.444;2022-09-09T07:31:28;18.60;99.90
12025;DHT22;6073;53.230;10.444;2022-09-09T07:33:55;18.90;99.90
12025;DHT22;6073;53.230;10.444;2022-09-09T07:36:27;19.30;99.90
12025;DHT22;6073;53.230;10.444;2022-09-09T07:38:57;19.10;99.90
12025;DHT22;6073;53.230;10.444;2022-09-09T07:41:34;18.80;99.90
12025;DHT22;6073;53.230;10.444;2022-09-09T07:44:07;18.50;99.90
12025;DHT22;6073;53.230;10.444;2022-09-09T07:46:36;18.60;99.90
12025;DHT22;6073;53.230;10.444;2022-09-09T07:49:08;18.80;99.90
12025;DHT22;6073;53.230;10.444;2022-09-09T07:51:39;18.80;99.90
12025;DHT22;6073;53.230;10.444;2022-09-09T07:54:08;18.70;99.90
12025;DHT22;6073;53.230;10.444;2022-09-09T07:56:35;18.50;99.90
12025;DHT22;6073;53.230;10.444;2022-09-09T07:59:01;18.50;99.90
12025;DHT22;6073;53.230;10.444;2022-09-09T08:01:29;18.40;99.90
12025;DHT22;6073;53.230;10.444;2022-09-09T08:04:03;18.20;99.90
12025;DHT22;6073;53.230;10.444;2022-09-09T08:06:39;18.10;99.90
12025;DHT22;6073;53.230;10.444;2022-09-09T08:09:06;18.20;99.90
12025;DHT22;6073;53.230;10.444;2022-09-09T08:11:32;18.50;99.90
12025;DHT22;6073;53.230;10.444;2022-09-09T08:13:59;18.60;99.90
12025;DHT22;6073;53.230;10.444;2022-09-09T08:16:30;18.50;99.90
12025;DHT22;6073;53.230;10.444;2022-09-09T08:18:59;18.90;99.90
12025;DHT22;6073;53.230;10.444;2022-09-09T08:21:27;19.50;99.90
12025;DHT22;6073;53.230;10.444;2022-09-09T08:23:54;19.40;99.90
12025;DHT22;6073;53.230;10.444;2022-09-09T08:26:25;19.20;99.90
12025;DHT22;6073;53.230;10.444;2022-09-09T08:28:53;18.90;99.90
12025;DHT22;6073;53.230;10.444;2022-09-09T08:31:36;18.80;99.90
12025;DHT22;6073;53.230;10.444;2022-09-09T08:34:03;18.60;99.90
12025;DHT22;6073;53.230;10.444;2022-09-09T08:36:35;18.70;99.90
12025;DHT22;6073;53.230;10.444;2022-09-09T08:39:02;18.70;99.90
12025;DHT22;6073;53.230;10.444;2022-09-09T08:53:10;21.10;99.90
12025;DHT22;6073;53.230;10.444;2022-09-09T08:55:56;21.30;99.90
12025;DHT22;6073;53.230;10.444;2022-09-09T08:58:29;21.00;99.90
12025;DHT22;6073;53.230;10.444;2022-09-09T09:09:02;22.60;99.90
12025;DHT22;6073;53.230;10.444;2022-09-09T09:11:46;22.70;99.90
12025;DHT22;6073;53.230;10.444;2022-09-09T09:14:22;22.60;99.90
12025;DHT22;6073;53.230;10.444;2022-09-09T09:17:04;21.70;99.90
12025;DHT22;6073;53.230;10.444;2022-09-09T09:19:34;21.20;99.90
12025;DHT22;6073;53.230;10.444;2022-09-09T09:22:32;20.50;99.90
12025;DHT22;6073;53.230;10.444;2022-09-09T09:27:40;19.60;99.90
12025;DHT22;6073;53.230;10.444;2022-09-09T09:30:18;19.50;99.90
12025;DHT22;6073;53.230;10.444;2022-09-09T09:32:57;19.50;99.90
12025;DHT22;6073;53.230;10.444;2022-09-09T09:35:23;19.50;99.90
12025;DHT22;6073;53.230;10.444;2022-09-09T09:37:49;19.50;99.90
12025;DHT22;6073;53.230;10.444;2022-09-09T09:40:17;19.30;99.90
12025;DHT22;6073;53.230;10.444;2022-09-09T09:48:05;19.20;99.90
12025;DHT22;6073;53.230;10.444;2022-09-09T09:50:32;19.30;99.90
12025;DHT22;6073;53.230;10.444;2022-09-09T09:53:05;19.60;99.90
12025;DHT22;6073;53.230;10.444;2022-09-09T09:55:33;20.00;99.90
12025;DHT22;6073;53.230;10.444;2022-09-09T09:58:06;20.10;99.90
12025;DHT22;6073;53.230;10.444;2022-09-09T10:00:49;20.20;99.90
12025;DHT22;6073;53.230;10.444;2022-09-09T10:03:27;20.60;99.90
12025;DHT22;6073;53.230;10.444;2022-09-09T10:05:53;20.60;99.90
12025;DHT22;6073;53.230;10.444;2022-09-09T10:08:19;20.90;99.90
12025;DHT22;6073;53.230;10.444;2022-09-09T10:11:01;21.30;99.90
12025;DHT22;6073;53.230;10.444;2022-09-09T10:27:28;21.10;99.90
12025;DHT22;6073;53.230;10.444;2022-09-09T10:30:01;21.10;99.90
12025;DHT22;6073;53.230;10.444;2022-09-09T10:32:47;21.00;99.90
12025;DHT22;6073;53.230;10.444;2022-09-09T10:35:24;21.00;99.90
12025;DHT22;6073;53.230;10.444;2022-09-09T10:38:11;21.50;99.90
12025;DHT22;6073;53.230;10.444;2022-09-09T10:46:50;22.80;99.90
12025;DHT22;6073;53.230;10.444;2022-09-09T10:54:42;22.30;99.90
12025;DHT22;6073;53.230;10.444;2022-09-09T10:59:51;23.00;99.90
12025;DHT22;6073;53.230;10.444;2022-09-09T11:02:29;23.00;99.90
12025;DHT22;6073;53.230;10.444;2022-09-09T11:07:55;22.20;99.90
12025;DHT22;6073;53.230;10.444;2022-09-09T11:10:40;21.80;99.90
12025;DHT22;6073;53.230;10.444;2022-09-09T11:13:21;21.50;99.90
12025;DHT22;6073;53.230;10.444;2022-09-09T11:15:53;21.60;99.90
12025;DHT22;6073;53.230;10.444;2022-09-09T11:18:21;21.90;99.90
12025;DHT22;6073;53.230;10.444;2022-09-09T11:20:55;22.20;99.90
12025;DHT22;6073;53.230;10.444;2022-09-09T11:23:27;22.20;99.90
12025;DHT22;6073;53.230;10.444;2022-09-09T11:25:58;22.70;99.90
12025;DHT22;6073;53.230;10.444;2022-09-09T11:34:42;21.90;99.90
12025;DHT22;6073;53.230;10.444;2022-09-09T11:40:27;21.70;99.90
12025;DHT22;6073;53.230;10.444;2022-09-09T11:43:15;21.40;99.90
12025;DHT22;6073;53.230;10.444;2022-09-09T11:45:43;21.00;99.90
12025;DHT22;6073;53.230;10.444;2022-09-09T11:48:25;20.60;99.90
12025;DHT22;6073;53.230;10.444;2022-09-09T11:54:30;19.10;99.90
12025;DHT22;6073;53.230;10.444;2022-09-09T11:56:57;18.90;99.90
12025;DHT22;6073;53.230;10.444;2022-09-09T11:59:31;18.70;99.90
12025;DHT22;6073;53.230;10.444;2022-09-09T12:02:24;18.60;99.90
12025;DHT22;6073;53.230;10.444;2022-09-09T12:07:39;18.70;99.90
12025;DHT22;6073;53.230;10.444;2022-09-09T12:12:37;19.00;99.90
12025;DHT22;6073;53.230;10.444;2022-09-09T12:15:19;19.00;99.90
12025;DHT22;6073;53.230;10.444;2022-09-09T12:17:47;19.00;99.90
12025;DHT22;6073;53.230;10.444;2022-09-09T12:20:37;19.10;99.90
12025;DHT22;6073;53.230;10.444;2022-09-09T12:23:32;19.30;99.90
12025;DHT22;6073;53.230;10.444;2022-09-09T12:26:25;19.40;99.90
12025;DHT22;6073;53.230;10.444;2022-09-09T12:34:42;20.30;99.90
12025;DHT22;6073;53.230;10.444;2022-09-09T12:37:40;20.70;99.90
12025;DHT22;6073;53.230;10.444;2022-09-09T12:42:48;21.20;99.90
12025;DHT22;6073;53.230;10.444;2022-09-09T12:45:24;21.40;99.90
12025;DHT22;6073;53.230;10.444;2022-09-09T12:48:01;21.60;99.90
12025;DHT22;6073;53.230;10.444;2022-09-09T12:50:31;21.70;99.90
12025;DHT22;6073;53.230;10.444;2022-09-09T12:53:00;21.50;99.90
12025;DHT22;6073;53.230;10.444;2022-09-09T12:55:36;21.50;99.90
12025;DHT22;6073;53.230;10.444;2022-09-09T12:58:04;21.50;99.90
12025;DHT22;6073;53.230;10.444;2022-09-09T13:00:32;21.50;99.90
12025;DHT22;6073;53.230;10.444;2022-09-09T13:03:00;21.50;99.90
12025;DHT22;6073;53.230;10.444;2022-09-09T13:05:35;21.50;99.90
12025;DHT22;6073;53.230;10.444;2022-09-09T13:08:03;21.40;99.90
12025;DHT22;6073;53.230;10.444;2022-09-09T13:10:38;21.50;99.90
12025;DHT22;6073;53.230;10.444;2022-09-09T13:13:16;21.70;99.90
12025;DHT22;6073;53.230;10.444;2022-09-09T13:16:04;21.90;99.90
12025;DHT22;6073;53.230;10.444;2022-09-09T13:18:36;21.80;99.90
12025;DHT22;6073;53.230;10.444;2022-09-09T13:21:03;21.70;99.90
12025;DHT22;6073;53.230;10.444;2022-09-09T13:23:36;21.60;99.90
12025;DHT22;6073;53.230;10.444;2022-09-09T13:26:28;21.60;99.90
12025;DHT22;6073;53.230;10.444;2022-09-09T13:28:55;21.50;99.90
12025;DHT22;6073;53.230;10.444;2022-09-09T13:31:44;21.40;99.90
12025;DHT22;6073;53.230;10.444;2022-09-09T13:37:02;21.10;99.90
12025;DHT22;6073;53.230;10.444;2022-09-09T13:39:30;20.70;99.90
12025;DHT22;6073;53.230;10.444;2022-09-09T13:42:00;20.50;99.90
12025;DHT22;6073;53.230;10.444;2022-09-09T13:44:37;20.30;99.90
12025;DHT22;6073;53.230;10.444;2022-09-09T13:47:21;20.20;99.90
12025;DHT22;6073;53.230;10.444;2022-09-09T13:49:51;20.00;99.90
12025;DHT22;6073;53.230;10.444;2022-09-09T13:52:18;19.80;99.90
12025;DHT22;6073;53.230;10.444;2022-09-09T13:54:48;19.60;99.90
12025;DHT22;6073;53.230;10.444;2022-09-09T13:57:25;19.50;99.90
12025;DHT22;6073;53.230;10.444;2022-09-09T13:59:52;19.30;99.90
12025;DHT22;6073;53.230;10.444;2022-09-09T14:02:18;19.20;99.90
12025;DHT22;6073;53.230;10.444;2022-09-09T14:04:44;19.10;99.90
12025;DHT22;6073;53.230;10.444;2022-09-09T14:07:14;19.10;99.90
12025;DHT22;6073;53.230;10.444;2022-09-09T14:09:41;18.80;99.90
12025;DHT22;6073;53.230;10.444;2022-09-09T14:12:13;18.60;99.90
12025;DHT22;6073;53.230;10.444;2022-09-09T14:14:40;18.40;99.90
12025;DHT22;6073;53.230;10.444;2022-09-09T14:17:07;18.20;99.90
12025;DHT22;6073;53.230;10.444;2022-09-09T14:19:33;18.10;99.90
12025;DHT22;6073;53.230;10.444;2022-09-09T14:21:59;18.10;99.90
12025;DHT22;6073;53.230;10.444;2022-09-09T14:24:24;18.00;99.90
12025;DHT22;6073;53.230;10.444;2022-09-09T14:26:50;17.90;99.90
12025;DHT22;6073;53.230;10.444;2022-09-09T14:29:16;17.90;99.90
12025;DHT22;6073;53.230;10.444;2022-09-09T14:31:41;17.90;99.90
12025;DHT22;6073;53.230;10.444;2022-09-09T14:34:07;17.80;99.90
12025;DHT22;6073;53.230;10.444;2022-09-09T14:36:33;17.80;99.90
12025;DHT22;6073;53.230;10.444;2022-09-09T14:38:58;17.80;99.90
12025;DHT22;6073;53.230;10.444;2022-09-09T14:41:24;17.80;99.90
12025;DHT22;6073;53.230;10.444;2022-09-09T14:43:50;17.80;99.90
12025;DHT22;6073;53.230;10.444;2022-09-09T14:46:18;17.90;99.90
12025;DHT22;6073;53.230;10.444;2022-09-09T14:48:44;17.90;99.90
12025;DHT22;6073;53.230;10.444;2022-09-09T14:51:16;17.90;99.90
12025;DHT22;6073;53.230;10.444;2022-09-09T14:53:45;18.00;99.90
12025;DHT22;6073;53.230;10.444;2022-09-09T14:56:18;17.90;99.90
12025;DHT22;6073;53.230;10.444;2022-09-09T14:58:48;17.90;99.90
12025;DHT22;6073;53.230;10.444;2022-09-09T15:01:16;18.00;99.90
12025;DHT22;6073;53.230;10.444;2022-09-09T15:03:56;18.10;99.90
12025;DHT22;6073;53.230;10.444;2022-09-09T15:06:24;18.20;99.90
12025;DHT22;6073;53.230;10.444;2022-09-09T15:08:51;18.20;99.90
12025;DHT22;6073;53.230;10.444;2022-09-09T15:11:18;18.20;99.90
12025;DHT22;6073;53.230;10.444;2022-09-09T15:13:47;18.20;99.90
12025;DHT22;6073;53.230;10.444;2022-09-09T15:16:19;18.20;99.90
12025;DHT22;6073;53.230;10.444;2022-09-09T15:18:45;18.20;99.90
12025;DHT22;6073;53.230;10.444;2022-09-09T15:21:23;18.10;99.90
12025;DHT22;6073;53.230;10.444;2022-09-09T15:23:49;18.10;99.90
12025;DHT22;6073;53.230;10.444;2022-09-09T15:26:15;18.10;99.90
12025;DHT22;6073;53.230;10.444;2022-09-09T15:28:45;18.00;99.90
12025;DHT22;6073;53.230;10.444;2022-09-09T15:31:14;18.10;99.90
12025;DHT22;6073;53.230;10.444;2022-09-09T15:33:49;18.10;99.90
12025;DHT22;6073;53.230;10.444;2022-09-09T15:36:23;18.10;99.90
12025;DHT22;6073;53.230;10.444;2022-09-09T15:38:52;18.10;99.90
12025;DHT22;6073;53.230;10.444;2022-09-09T15:41:20;18.10;99.90
12025;DHT22;6073;53.230;10.444;2022-09-09T15:43:47;18.10;99.90
12025;DHT22;6073;53.230;10.444;2022-09-09T15:48:46;18.40;99.90
12025;DHT22;6073;53.230;10.444;2022-09-09T15:51:12;18.40;99.90
12025;DHT22;6073;53.230;10.444;2022-09-09T15:53:38;18.50;99.90
12025;DHT22;6073;53.230;10.444;2022-09-09T15:56:05;18.50;99.90
12025;DHT22;6073;53.230;10.444;2022-09-09T15:58:32;18.40;99.90
12025;DHT22;6073;53.230;10.444;2022-09-09T16:01:08;18.40;99.90
12025;DHT22;6073;53.230;10.444;2022-09-09T16:03:37;18.40;99.90
12025;DHT22;6073;53.230;10.444;2022-09-09T16:06:04;18.40;99.90
12025;DHT22;6073;53.230;10.444;2022-09-09T16:08:38;18.40;99.90
12025;DHT22;6073;53.230;10.444;2022-09-09T16:11:10;18.40;99.90
12025;DHT22;6073;53.230;10.444;2022-09-09T16:13:36;18.40;99.90
12025;DHT22;6073;53.230;10.444;2022-09-09T16:16:04;18.30;99.90
12025;DHT22;6073;53.230;10.444;2022-09-09T16:18:41;18.30;99.90
12025;DHT22;6073;53.230;10.444;2022-09-09T16:21:08;18.20;99.90
12025;DHT22;6073;53.230;10.444;2022-09-09T16:23:36;18.20;99.90
12025;DHT22;6073;53.230;10.444;2022-09-09T16:26:02;18.20;99.90
12025;DHT22;6073;53.230;10.444;2022-09-09T16:28:28;18.30;99.90
12025;DHT22;6073;53.230;10.444;2022-09-09T16:30:54;18.40;99.90
12025;DHT22;6073;53.230;10.444;2022-09-09T16:33:19;18.40;99.90
12025;DHT22;6073;53.230;10.444;2022-09-09T16:35:45;18.50;99.90
12025;DHT22;6073;53.230;10.444;2022-09-09T16:38:11;18.60;99.90
12025;DHT22;6073;53.230;10.444;2022-09-09T16:40:39;18.60;99.90
12025;DHT22;6073;53.230;10.444;2022-09-09T16:43:06;18.60;99.90
12025;DHT22;6073;53.230;10.444;2022-09-09T16:45:32;18.60;99.90
12025;DHT22;6073;53.230;10.444;2022-09-09T16:48:00;18.70;99.90
12025;DHT22;6073;53.230;10.444;2022-09-09T16:50:26;18.60;99.90
12025;DHT22;6073;53.230;10.444;2022-09-09T16:52:52;18.50;99.90
12025;DHT22;6073;53.230;10.444;2022-09-09T16:55:18;18.30;99.90
12025;DHT22;6073;53.230;10.444;2022-09-09T16:57:46;18.20;99.90
12025;DHT22;6073;53.230;10.444;2022-09-09T17:00:14;18.10;99.90
12025;DHT22;6073;53.230;10.444;2022-09-09T17:02:42;18.00;99.90
12025;DHT22;6073;53.230;10.444;2022-09-09T17:05:08;17.90;99.90
12025;DHT22;6073;53.230;10.444;2022-09-09T17:07:34;17.80;99.90
12025;DHT22;6073;53.230;10.444;2022-09-09T17:10:01;17.70;99.90
12025;DHT22;6073;53.230;10.444;2022-09-09T17:12:26;17.70;99.90
12025;DHT22;6073;53.230;10.444;2022-09-09T17:14:52;17.60;99.90
12025;DHT22;6073;53.230;10.444;2022-09-09T17:17:17;17.50;99.90
12025;DHT22;6073;53.230;10.444;2022-09-09T17:19:43;17.50;99.90
12025;DHT22;6073;53.230;10.444;2022-09-09T17:22:08;17.40;99.90
12025;DHT22;6073;53.230;10.444;2022-09-09T17:24:35;17.30;99.90
12025;DHT22;6073;53.230;10.444;2022-09-09T17:27:00;17.30;99.90
12025;DHT22;6073;53.230;10.444;2022-09-09T17:29:27;17.20;99.90
12025;DHT22;6073;53.230;10.444;2022-09-09T17:31:53;17.10;99.90
12025;DHT22;6073;53.230;10.444;2022-09-09T17:34:20;17.10;99.90
12025;DHT22;6073;53.230;10.444;2022-09-09T17:36:46;17.00;99.90
12025;DHT22;6073;53.230;10.444;2022-09-09T17:39:12;16.90;99.90
12025;DHT22;6073;53.230;10.444;2022-09-09T17:41:38;16.80;99.90
12025;DHT22;6073;53.230;10.444;2022-09-09T17:44:05;16.80;99.90
12025;DHT22;6073;53.230;10.444;2022-09-09T17:46:34;16.70;99.90
12025;DHT22;6073;53.230;10.444;2022-09-09T17:49:05;16.70;99.90
12025;DHT22;6073;53.230;10.444;2022-09-09T17:51:32;16.60;99.90
12025;DHT22;6073;53.230;10.444;2022-09-09T17:54:01;16.50;99.90
12025;DHT22;6073;53.230;10.444;2022-09-09T17:56:30;16.50;99.90
12025;DHT22;6073;53.230;10.444;2022-09-09T17:58:56;16.40;99.90